Onweer radar Meer informatie blitzortung!


Regen radar Meer informatie rain snow radar



METAR rapporten vliegvelden

   
EHRD - Rotterdam
Gewijzigd: 17-09-2019 03:55
Gedeeltelijk bewolkt  
Gedeeltelijk bewolkt  
   Wind: Westen 5 km/h
Wind: Westen 5 km/h
Temperatuur: 9°C
Voelt als: 8°C
Dauwpunt: 7°C
Vochtigheid: 87%
Barometer: 1021 hPa
Bewolking: Partly Cloudy
Zicht: meer dan 10 km
Bewolking: Gedeeltelijk bewolkt ft
EHRD 170155Z AUTO 26005KT 9999 NSC 09/07 Q1021 NOSIG
EBAW - Antwerpen
Gewijzigd: 17-09-2019 04:20
Licht bewolkt  
Licht bewolkt  
   Wind: Noorden 5 km/h
Wind: Noorden 5 km/h
Temperatuur: 14°C
Dauwpunt: 10°C
Vochtigheid: 77%
Barometer: 1021 hPa
Bewolking: Few Clouds
Zicht: meer dan 10 km
Bewolking: Licht bewolkt 3700 ft
EBAW 170220Z AUTO 36005KT 9999 // FEW037/// 14/10 Q1021
EHAM - Amsterdam
Gewijzigd: 17-09-2019 04:25
Licht bewolkt  
Licht bewolkt  
   Wind: WNW 2 km/h
Wind: WNW 2 km/h
Temperatuur: 9°C
Dauwpunt: 8°C
Vochtigheid: 94%
Barometer: 1020 hPa
Bewolking: Few Clouds
Zicht: meer dan 10 km
Bewolking: Licht bewolkt 3200 ft
EHAM 170225Z 29002KT 9999 FEW032 09/08 Q1020 NOSIG
EHEH - Eindhoven
Gewijzigd: 17-09-2019 03:55
Nevel, Gedeeltelijk bewolkt  
Nevel, Gedeeltelijk bewolkt  
   Wind: Westen 4 km/h
Wind: Westen 4 km/h
Temperatuur: 10°C
Voelt als: 9°C
Dauwpunt: 10°C
Vochtigheid: 100%
Barometer: 1021 hPa
Bewolking: Partly Cloudy
Zicht: 3 km
Bewolking: Licht bewolkt 2900 ft,
Gedeeltelijk bewolkt 3500 ft
EHEH 170155Z AUTO 27004KT 2700 BR FEW029 SCT035 10/10 Q1021 YLO
  

Script ontwikkeld door  Saratoga-weather.org Aangepast voor de template door  Weerstation Leuven

U vindt ons ook hier:

Het Weer Aktueel

Apparatuur in gebruik:

Weerstation
Davis VP2

Weerprogramma
Cumulus

Weercomputer
Pipo X9 with Windows 10

Davis VP2

Cumulus

Pipo X9 with Windows 10